createdAt,value
2017-07-18T00:01:36.102Z,8.97
2017-07-18T00:04:03.622Z,9.43
2017-07-18T00:06:31.195Z,8.67
2017-07-18T00:08:58.736Z,7.60
2017-07-18T00:11:26.272Z,8.50
2017-07-18T00:13:53.790Z,10.57
2017-07-18T00:16:21.587Z,8.33
2017-07-18T00:18:49.664Z,9.70
2017-07-18T00:21:17.240Z,11.60
2017-07-18T00:23:45.091Z,9.37
2017-07-18T00:26:12.599Z,9.70
2017-07-18T00:28:40.269Z,9.00
2017-07-18T00:31:08.084Z,9.87
2017-07-18T00:33:35.635Z,8.13
2017-07-18T00:36:03.152Z,8.67
2017-07-18T00:38:30.733Z,9.33
2017-07-18T00:40:58.248Z,8.03
2017-07-18T00:43:25.786Z,9.70
2017-07-18T00:45:53.631Z,9.00
2017-07-18T00:48:21.768Z,9.47
2017-07-18T00:50:49.862Z,9.00
2017-07-18T00:53:17.403Z,9.07
2017-07-18T00:55:45.305Z,9.37
2017-07-18T00:58:12.835Z,8.27
2017-07-18T01:00:40.377Z,9.10
2017-07-18T01:03:07.951Z,9.97
2017-07-18T01:05:35.675Z,9.23
2017-07-18T01:08:03.176Z,8.10
2017-07-18T01:10:30.710Z,9.90
2017-07-18T01:12:58.723Z,9.30
2017-07-18T01:15:26.233Z,10.07
2017-07-18T01:17:53.775Z,10.37
2017-07-18T01:20:21.575Z,10.70
2017-07-18T01:22:49.104Z,10.57
2017-07-18T01:25:16.608Z,9.23
2017-07-18T01:27:44.418Z,11.67
2017-07-18T01:30:12.127Z,10.40
2017-07-18T01:32:39.697Z,10.47
2017-07-18T01:35:07.559Z,11.03
2017-07-18T01:37:35.072Z,10.43
2017-07-18T01:40:02.580Z,9.23
2017-07-18T01:42:30.108Z,9.93
2017-07-18T01:44:57.686Z,10.07
2017-07-18T01:47:25.219Z,9.27
2017-07-18T01:49:52.850Z,10.07
2017-07-18T01:52:20.361Z,13.93
2017-07-18T01:54:47.865Z,14.10
2017-07-18T01:57:15.670Z,14.63
2017-07-18T01:59:43.275Z,13.13
2017-07-18T02:02:10.897Z,12.80
2017-07-18T02:04:38.516Z,12.57
2017-07-18T02:07:06.095Z,12.33
2017-07-18T02:09:33.612Z,12.57
2017-07-18T02:12:01.201Z,11.53
2017-07-18T02:14:28.768Z,12.43
2017-07-18T02:16:56.631Z,12.03
2017-07-18T02:19:24.215Z,11.67
2017-07-18T02:21:51.734Z,13.13
2017-07-18T02:24:19.243Z,12.40
2017-07-18T02:26:47.027Z,12.33
2017-07-18T02:29:14.537Z,11.23
2017-07-18T02:31:42.187Z,11.87
2017-07-18T02:34:10.007Z,12.20
2017-07-18T02:36:37.840Z,13.80
2017-07-18T02:39:05.361Z,13.23
2017-07-18T02:41:32.948Z,12.77
2017-07-18T02:44:00.509Z,11.50
2017-07-18T02:46:28.057Z,13.00
2017-07-18T02:48:55.713Z,13.20
2017-07-18T02:51:23.237Z,11.77
2017-07-18T02:53:50.759Z,13.03
2017-07-18T02:56:18.502Z,13.07
2017-07-18T02:58:46.015Z,11.70
2017-07-18T03:01:13.799Z,12.17
2017-07-18T03:03:41.332Z,11.17
2017-07-18T03:06:08.862Z,13.47
2017-07-18T03:08:36.427Z,13.63
2017-07-18T03:11:03.948Z,13.37
2017-07-18T03:13:31.531Z,12.87
2017-07-18T03:15:59.368Z,13.53
2017-07-18T03:18:26.872Z,13.50
2017-07-18T03:33:42.247Z,14.37
2017-07-18T03:36:09.774Z,12.70
2017-07-18T03:38:37.602Z,14.20
2017-07-18T03:41:05.407Z,14.93
2017-07-18T03:43:32.974Z,16.80
2017-07-18T03:46:00.492Z,14.77
2017-07-18T03:48:28.445Z,14.40
2017-07-18T03:50:56.000Z,15.13
2017-07-18T03:53:23.682Z,13.90
2017-07-18T03:55:51.566Z,13.57
2017-07-18T03:58:19.257Z,13.60
2017-07-18T04:00:46.811Z,13.47
2017-07-18T04:03:14.907Z,13.93
2017-07-18T04:05:42.458Z,12.63
2017-07-18T04:08:10.156Z,12.87
2017-07-18T04:10:37.687Z,14.00
2017-07-18T04:13:05.635Z,14.33
2017-07-18T04:15:33.221Z,15.73
2017-07-18T04:18:00.784Z,13.27
2017-07-18T04:20:28.606Z,13.70
2017-07-18T04:22:56.265Z,13.50
2017-07-18T04:25:24.319Z,12.47
2017-07-18T04:27:51.963Z,13.80
2017-07-18T04:30:19.473Z,13.30
2017-07-18T04:32:47.537Z,13.77
2017-07-18T04:35:15.067Z,13.33
2017-07-18T04:37:42.584Z,12.73
2017-07-18T04:40:10.400Z,12.70
2017-07-18T04:42:37.913Z,13.00
2017-07-18T04:45:05.572Z,12.13
2017-07-18T04:47:33.419Z,13.17
2017-07-18T04:50:00.948Z,13.20
2017-07-18T04:52:28.527Z,14.10
2017-07-18T04:54:56.148Z,13.80
2017-07-18T04:57:23.658Z,13.50
2017-07-18T04:59:51.167Z,12.27
2017-07-18T05:02:18.744Z,11.20
2017-07-18T05:04:46.246Z,11.27
2017-07-18T05:07:13.857Z,11.20
2017-07-18T05:09:41.664Z,10.70
2017-07-18T05:12:09.191Z,10.40
2017-07-18T05:14:36.788Z,10.33
2017-07-18T05:17:04.308Z,10.70
2017-07-18T05:19:31.836Z,10.80
2017-07-18T05:21:59.437Z,9.73
2017-07-18T05:24:26.942Z,9.97
2017-07-18T05:26:54.770Z,10.37
2017-07-18T05:29:22.291Z,10.60
2017-07-18T05:31:49.838Z,10.27
2017-07-18T05:34:17.408Z,10.83
2017-07-18T05:36:45.090Z,10.20
2017-07-18T05:39:13.162Z,11.60
2017-07-18T05:41:40.885Z,11.97
2017-07-18T05:44:08.404Z,11.80
2017-07-18T05:46:35.972Z,10.10
2017-07-18T05:49:03.526Z,9.53
2017-07-18T05:51:31.172Z,10.97
2017-07-18T05:53:58.838Z,9.97
2017-07-18T05:56:26.349Z,10.47
2017-07-18T05:58:53.859Z,10.40
2017-07-18T06:01:21.204Z,10.80
2017-07-18T06:03:48.791Z,11.00
2017-07-18T06:06:16.462Z,9.50
2017-07-18T06:08:44.115Z,9.67
2017-07-18T06:11:11.630Z,8.60
2017-07-18T06:13:39.134Z,10.47
2017-07-18T06:16:06.480Z,8.37
2017-07-18T06:18:34.003Z,9.73
2017-07-18T06:21:01.533Z,9.10
2017-07-18T06:23:29.135Z,9.47
2017-07-18T06:25:56.647Z,9.70
2017-07-18T06:28:24.173Z,8.70
2017-07-18T06:30:51.720Z,8.30
2017-07-18T06:33:19.227Z,8.53
2017-07-18T06:35:46.759Z,8.27
2017-07-18T06:38:14.481Z,9.00
2017-07-18T06:40:42.181Z,9.30
2017-07-18T06:43:09.743Z,8.93
2017-07-18T06:45:37.565Z,9.27
2017-07-18T06:48:04.948Z,8.97
2017-07-18T06:50:32.472Z,8.67
2017-07-18T06:53:00.008Z,9.00
2017-07-18T06:55:27.931Z,8.40
2017-07-18T06:57:55.436Z,7.80
2017-07-18T07:00:22.955Z,8.43
2017-07-18T07:02:50.587Z,7.27
2017-07-18T07:05:18.094Z,7.07
2017-07-18T07:07:45.636Z,7.77
2017-07-18T07:10:13.500Z,7.70
2017-07-18T07:12:41.011Z,9.17
2017-07-18T07:15:08.523Z,7.67
2017-07-18T07:17:36.404Z,6.50
2017-07-18T07:20:03.974Z,6.53
2017-07-18T07:22:31.474Z,7.10
2017-07-18T07:24:59.072Z,8.50
2017-07-18T07:27:26.617Z,8.07
2017-07-18T07:29:54.178Z,7.70
2017-07-18T07:32:21.719Z,8.27
2017-07-18T07:34:49.222Z,7.50
2017-07-18T07:37:16.752Z,7.43
2017-07-18T07:39:44.413Z,7.90
2017-07-18T07:42:11.920Z,7.70
2017-07-18T07:44:39.432Z,6.73
2017-07-18T07:47:07.016Z,8.30
2017-07-18T07:49:34.519Z,7.70
2017-07-18T07:52:02.035Z,7.90
2017-07-18T07:54:29.976Z,7.93
2017-07-18T07:56:57.470Z,7.07
2017-07-18T07:59:25.095Z,6.90
2017-07-18T08:01:53.302Z,7.60
2017-07-18T08:04:22.058Z,8.23
2017-07-18T08:06:49.914Z,7.10
2017-07-18T08:09:17.767Z,6.60
2017-07-18T08:11:45.574Z,8.20
2017-07-18T08:14:13.251Z,6.80
2017-07-18T08:16:41.368Z,7.13
2017-07-18T08:19:08.790Z,7.13
2017-07-18T08:21:37.029Z,6.43
2017-07-18T08:24:04.560Z,6.70
2017-07-18T08:26:32.071Z,5.70
2017-07-18T08:28:59.643Z,5.47
2017-07-18T08:31:27.270Z,5.67
2017-07-18T08:33:54.770Z,6.00
2017-07-18T08:36:22.683Z,6.63
2017-07-18T08:41:26.931Z,6.03
2017-07-18T08:43:54.456Z,6.00
2017-07-18T08:46:21.957Z,6.33
2017-07-18T08:48:49.608Z,6.50
2017-07-18T08:51:17.104Z,6.40
2017-07-18T08:53:44.606Z,5.83
2017-07-18T08:56:12.331Z,6.63
2017-07-18T08:58:40.028Z,5.90
2017-07-18T09:01:07.746Z,5.40
2017-07-18T09:03:35.328Z,5.17
2017-07-18T09:06:02.835Z,4.80
2017-07-18T09:08:30.507Z,6.07
2017-07-18T09:10:58.092Z,5.10
2017-07-18T09:13:25.603Z,4.30
2017-07-18T09:15:53.102Z,5.10
2017-07-18T09:18:20.733Z,5.67
2017-07-18T09:20:48.242Z,5.30
2017-07-18T09:23:15.499Z,5.13
2017-07-18T09:25:42.951Z,5.00
2017-07-18T09:28:10.479Z,5.37
2017-07-18T09:30:37.817Z,4.87
2017-07-18T09:33:05.723Z,5.10
2017-07-18T09:35:33.215Z,5.73
2017-07-18T09:38:00.732Z,5.00
2017-07-18T09:40:28.352Z,5.87
2017-07-18T09:42:55.850Z,5.10
2017-07-18T09:45:23.351Z,5.17
2017-07-18T09:47:50.910Z,5.57
2017-07-18T09:50:18.557Z,6.27
2017-07-18T09:52:46.059Z,4.63
2017-07-18T09:55:13.624Z,4.97
2017-07-18T09:57:41.120Z,4.90
2017-07-18T10:00:08.619Z,4.37
2017-07-18T10:02:36.210Z,4.37
2017-07-18T10:05:03.743Z,4.53
2017-07-18T10:07:31.272Z,4.43
2017-07-18T10:09:58.826Z,4.33
2017-07-18T10:12:26.432Z,4.87
2017-07-18T10:14:56.283Z,3.90
2017-07-18T10:17:23.867Z,4.70
2017-07-18T10:19:51.358Z,4.03
2017-07-18T10:22:18.909Z,5.37
2017-07-18T10:24:46.398Z,3.83
2017-07-18T10:27:13.918Z,4.50
2017-07-18T10:29:41.798Z,3.70
2017-07-18T10:32:09.299Z,4.67
2017-07-18T10:34:36.853Z,4.90
2017-07-18T10:37:04.752Z,4.10
2017-07-18T10:39:32.251Z,4.00
2017-07-18T10:41:59.822Z,4.40
2017-07-18T10:44:27.406Z,5.03
2017-07-18T10:46:54.982Z,4.40
2017-07-18T10:49:22.483Z,4.63
2017-07-18T10:51:50.330Z,4.27
2017-07-18T10:54:17.830Z,4.00
2017-07-18T10:56:45.318Z,4.37
2017-07-18T10:59:13.323Z,4.20
2017-07-18T11:01:41.028Z,4.00
2017-07-18T11:04:08.738Z,4.43
2017-07-18T11:06:36.287Z,3.90
2017-07-18T11:09:03.794Z,4.40
2017-07-18T11:11:31.326Z,4.27
2017-07-18T11:13:59.119Z,4.10
2017-07-18T11:16:26.679Z,4.10
2017-07-18T11:18:54.179Z,4.63
2017-07-18T11:21:21.867Z,3.80
2017-07-18T11:23:49.379Z,3.90
2017-07-18T11:26:17.483Z,4.13
2017-07-18T11:28:45.272Z,4.13
2017-07-18T11:31:12.867Z,4.13
2017-07-18T11:33:40.387Z,4.20
2017-07-18T11:36:08.280Z,4.10
2017-07-18T11:38:35.790Z,4.37
2017-07-18T11:41:03.290Z,3.87
2017-07-18T11:43:30.839Z,4.43
2017-07-18T11:45:58.428Z,3.97
2017-07-18T11:48:25.959Z,4.10
2017-07-18T11:50:53.503Z,4.63
2017-07-18T11:53:21.019Z,3.60
2017-07-18T11:55:48.522Z,5.43
2017-07-18T11:58:16.139Z,4.60
2017-07-18T12:00:43.723Z,4.23
2017-07-18T12:03:11.246Z,4.40
2017-07-18T12:05:38.836Z,4.50
2017-07-18T12:08:06.394Z,5.30
2017-07-18T12:10:33.902Z,4.70
2017-07-18T12:13:01.455Z,4.23
2017-07-18T12:15:28.956Z,4.07
2017-07-18T12:17:56.459Z,3.90
2017-07-18T12:20:24.009Z,4.50
2017-07-18T12:22:51.708Z,4.60
2017-07-18T12:25:19.258Z,4.70
2017-07-18T12:27:46.855Z,4.20
2017-07-18T12:30:14.359Z,4.10
2017-07-18T12:32:41.859Z,4.60
2017-07-18T12:35:09.418Z,5.07
2017-07-18T12:37:36.914Z,5.17
2017-07-18T12:40:04.425Z,4.40
2017-07-18T12:42:32.216Z,4.70
2017-07-18T12:44:59.574Z,5.20
2017-07-18T12:47:27.155Z,5.10
2017-07-18T12:49:54.870Z,5.37
2017-07-18T12:52:22.863Z,5.20
2017-07-18T12:54:50.643Z,5.30
2017-07-18T12:57:18.239Z,4.57
2017-07-18T12:59:45.960Z,5.10
2017-07-18T13:02:13.515Z,4.70
2017-07-18T13:04:41.031Z,4.50
2017-07-18T13:07:08.618Z,4.30
2017-07-18T13:09:36.132Z,4.40
2017-07-18T13:12:03.676Z,3.80
2017-07-18T13:14:31.260Z,4.63
2017-07-18T13:16:58.771Z,4.17
2017-07-18T13:19:26.326Z,4.23
2017-07-18T13:21:54.182Z,3.70
2017-07-18T13:24:21.742Z,3.80
2017-07-18T13:26:49.246Z,3.90
2017-07-18T13:29:17.197Z,4.60
2017-07-18T13:31:44.956Z,4.40
2017-07-18T13:34:12.580Z,5.50
2017-07-18T13:36:40.288Z,4.50
2017-07-18T13:39:08.130Z,4.70
2017-07-18T13:41:35.754Z,4.90
2017-07-18T13:44:03.582Z,4.50
2017-07-18T13:46:31.315Z,4.40
2017-07-18T13:48:58.924Z,5.30
2017-07-18T13:51:26.471Z,5.10
2017-07-18T13:53:53.850Z,4.40
2017-07-18T13:56:21.674Z,5.37
2017-07-18T13:58:49.454Z,5.07
2017-07-18T14:01:17.092Z,5.00
2017-07-18T14:03:44.762Z,4.50
2017-07-18T14:06:12.284Z,5.67
2017-07-18T14:08:40.088Z,5.50
2017-07-18T14:11:08.045Z,5.00
2017-07-18T14:13:35.888Z,5.40
2017-07-18T14:16:03.399Z,4.57
2017-07-18T14:18:30.944Z,5.40
2017-07-18T14:20:58.760Z,5.37
2017-07-18T14:23:26.503Z,5.03
2017-07-18T14:25:54.090Z,4.80
2017-07-18T14:28:21.601Z,4.70
2017-07-18T14:30:49.198Z,5.50
2017-07-18T14:33:17.048Z,4.50
2017-07-18T14:35:44.563Z,4.37
2017-07-18T14:38:12.152Z,4.57
2017-07-18T14:40:39.895Z,4.80
2017-07-18T14:43:07.394Z,4.90
2017-07-18T14:45:35.585Z,4.93
2017-07-18T14:48:03.150Z,4.70
2017-07-18T14:50:30.988Z,5.60
2017-07-18T14:52:58.595Z,5.40
2017-07-18T14:55:26.325Z,5.47
2017-07-18T14:57:54.132Z,5.07
2017-07-18T15:00:21.792Z,5.50
2017-07-18T15:02:49.556Z,5.80
2017-07-18T15:05:17.330Z,5.30
2017-07-18T15:07:45.359Z,5.07
2017-07-18T15:10:13.596Z,6.10
2017-07-18T15:12:41.508Z,5.50
2017-07-18T15:15:09.006Z,5.43
2017-07-18T15:17:36.743Z,5.17
2017-07-18T15:20:04.584Z,5.13
2017-07-18T15:22:32.238Z,4.93
2017-07-18T15:24:59.998Z,4.20
2017-07-18T15:27:27.778Z,4.87
2017-07-18T15:29:55.391Z,4.60
2017-07-18T15:32:23.153Z,6.03
2017-07-18T15:34:50.930Z,4.90
2017-07-18T15:37:18.587Z,4.83
2017-07-18T15:39:46.271Z,4.70
2017-07-18T15:42:13.872Z,5.20
2017-07-18T15:44:41.606Z,4.50
2017-07-18T15:47:09.850Z,5.20
2017-07-18T15:49:37.480Z,5.43
2017-07-18T15:52:04.987Z,5.43
2017-07-18T15:54:33.527Z,4.93
2017-07-18T15:57:01.313Z,5.03
2017-07-18T15:59:28.962Z,5.53
2017-07-18T16:01:56.721Z,5.40
2017-07-18T16:04:24.518Z,5.13
2017-07-18T16:06:52.052Z,4.50
2017-07-18T16:09:19.597Z,5.53
2017-07-18T16:11:47.412Z,4.83
2017-07-18T16:14:15.203Z,5.03
2017-07-18T16:16:43.538Z,5.00
2017-07-18T16:19:11.124Z,5.60
2017-07-18T16:21:38.799Z,5.90
2017-07-18T16:24:06.496Z,4.30
2017-07-18T16:26:34.762Z,5.10
2017-07-18T16:29:02.568Z,4.73
2017-07-18T16:31:30.236Z,4.60
2017-07-18T16:33:57.973Z,5.67
2017-07-18T16:36:25.793Z,4.80
2017-07-18T16:38:53.459Z,5.27
2017-07-18T16:41:20.984Z,6.73
2017-07-18T16:43:48.515Z,4.40
2017-07-18T16:46:16.384Z,4.30
2017-07-18T16:48:43.882Z,4.00
2017-07-18T16:51:11.380Z,4.77
2017-07-18T16:53:38.947Z,4.33
2017-07-18T16:56:07.394Z,4.80
2017-07-18T16:58:34.899Z,5.10
2017-07-18T17:01:02.495Z,3.97
2017-07-18T17:03:30.028Z,4.37
2017-07-18T17:05:57.641Z,5.50
2017-07-18T17:08:25.199Z,4.00
2017-07-18T17:10:52.725Z,3.87
2017-07-18T17:13:19.983Z,4.50
2017-07-18T17:15:47.786Z,4.80
2017-07-18T17:18:16.076Z,4.20
2017-07-18T17:20:43.752Z,4.80
2017-07-18T17:23:11.466Z,4.83
2017-07-18T17:25:38.978Z,4.70
2017-07-18T17:28:06.491Z,4.40
2017-07-18T17:30:34.355Z,5.30
2017-07-18T17:33:01.860Z,4.60
2017-07-18T17:35:29.358Z,4.63
2017-07-18T17:37:57.041Z,4.87
2017-07-18T17:40:24.553Z,5.40
2017-07-18T17:42:52.065Z,5.37
2017-07-18T17:45:19.599Z,5.93
2017-07-18T17:47:47.104Z,4.90
2017-07-18T17:50:14.663Z,5.43
2017-07-18T17:52:42.435Z,4.90
2017-07-18T17:55:09.966Z,5.43
2017-07-18T17:57:37.520Z,4.87
2017-07-18T18:00:05.438Z,4.90
2017-07-18T18:02:32.939Z,4.43
2017-07-18T18:05:00.443Z,6.60
2017-07-18T18:07:28.334Z,4.63
2017-07-18T18:09:55.867Z,5.10
2017-07-18T18:12:23.371Z,5.47
2017-07-18T18:14:51.322Z,4.87
2017-07-18T18:17:18.847Z,6.03
2017-07-18T18:19:46.371Z,5.13
2017-07-18T18:22:14.401Z,5.90
2017-07-18T18:24:42.009Z,5.90
2017-07-18T18:27:09.637Z,6.20
2017-07-18T18:29:37.865Z,6.37
2017-07-18T18:32:05.501Z,6.80
2017-07-18T18:34:33.075Z,7.37
2017-07-18T18:37:00.711Z,6.00
2017-07-18T18:39:28.511Z,6.13
2017-07-18T18:41:56.203Z,7.10
2017-07-18T18:44:23.899Z,6.90
2017-07-18T18:46:51.455Z,6.80
2017-07-18T18:49:18.959Z,6.10
2017-07-18T18:51:47.007Z,6.40
2017-07-18T18:54:14.641Z,6.30
2017-07-18T18:56:42.142Z,7.23
2017-07-18T18:59:09.867Z,6.77
2017-07-18T19:01:37.647Z,6.00
2017-07-18T19:04:05.287Z,6.90
2017-07-18T19:06:32.991Z,6.50
2017-07-18T19:09:00.506Z,5.53
2017-07-18T19:11:28.008Z,4.73
2017-07-18T19:13:55.934Z,6.00
2017-07-18T19:16:23.203Z,5.80
2017-07-18T19:18:50.699Z,5.63
2017-07-18T19:21:18.283Z,5.53
2017-07-18T19:23:45.787Z,6.63
2017-07-18T19:26:13.283Z,6.37
2017-07-18T19:28:41.139Z,6.17
2017-07-18T19:31:10.007Z,5.60
2017-07-18T19:33:37.512Z,6.50
2017-07-18T19:36:05.569Z,6.07
2017-07-18T19:38:33.164Z,5.93
2017-07-18T19:41:00.675Z,6.00
2017-07-18T19:43:28.173Z,5.87
2017-07-18T19:45:55.975Z,6.73
2017-07-18T19:48:23.305Z,5.77
2017-07-18T19:50:50.807Z,6.37
2017-07-18T19:53:18.592Z,6.03
2017-07-18T19:55:46.955Z,7.03
2017-07-18T19:58:14.461Z,7.53
2017-07-18T20:00:42.531Z,6.37
2017-07-18T20:03:10.248Z,6.30
2017-07-18T20:05:37.912Z,5.80
2017-07-18T20:08:05.881Z,6.30
2017-07-18T20:10:33.408Z,6.53
2017-07-18T20:13:00.927Z,6.07
2017-07-18T20:15:29.075Z,6.50
2017-07-18T20:17:56.671Z,6.17
2017-07-18T20:20:24.199Z,6.57
2017-07-18T20:22:51.922Z,6.90
2017-07-18T20:25:19.451Z,5.50
2017-07-18T20:27:46.982Z,5.83
2017-07-18T20:30:14.866Z,7.30
2017-07-18T20:32:42.365Z,6.37
2017-07-18T20:35:09.998Z,6.80
2017-07-18T20:37:37.587Z,6.30
2017-07-18T20:40:05.127Z,6.20
2017-07-18T20:42:32.790Z,6.40
2017-07-18T20:45:00.399Z,6.20
2017-07-18T20:47:27.899Z,7.07
2017-07-18T20:49:55.398Z,7.20
2017-07-18T20:52:23.006Z,6.87
2017-07-18T20:54:51.290Z,6.40
2017-07-18T20:57:18.824Z,6.90
2017-07-18T20:59:46.591Z,6.90
2017-07-18T21:02:14.095Z,7.03
2017-07-18T21:04:41.595Z,6.53
2017-07-18T21:07:09.442Z,7.20
2017-07-18T21:09:36.941Z,7.00
2017-07-18T21:12:04.841Z,6.43
2017-07-18T21:14:32.660Z,6.87
2017-07-18T21:17:00.695Z,7.00
2017-07-18T21:19:28.207Z,6.30
2017-07-18T21:21:55.763Z,5.77
2017-07-18T21:24:23.894Z,7.17
2017-07-18T21:26:51.403Z,6.90
2017-07-18T21:29:19.263Z,7.43
2017-07-18T21:31:46.833Z,6.50
2017-07-18T21:34:14.358Z,6.70
2017-07-18T21:36:41.915Z,7.00
2017-07-18T21:39:09.407Z,6.67
2017-07-18T21:41:36.915Z,6.60
2017-07-18T21:44:04.758Z,6.60
2017-07-18T21:46:32.375Z,7.03
2017-07-18T21:48:59.887Z,7.20
2017-07-18T21:51:27.700Z,6.70
2017-07-18T21:53:55.215Z,6.67
2017-07-18T21:56:22.710Z,6.87
2017-07-18T21:58:50.491Z,7.93
2017-07-18T22:01:18.003Z,7.63
2017-07-18T22:03:45.534Z,6.60
2017-07-18T22:06:13.100Z,6.03
2017-07-18T22:08:40.605Z,6.40
2017-07-18T22:11:08.219Z,5.90
2017-07-18T22:13:35.775Z,6.40
2017-07-18T22:16:03.280Z,6.90
2017-07-18T22:18:30.791Z,6.53
2017-07-18T22:20:58.811Z,7.23
2017-07-18T22:23:26.311Z,6.23
2017-07-18T22:25:53.802Z,6.87
2017-07-18T22:28:21.347Z,6.53
2017-07-18T22:30:48.851Z,6.23
2017-07-18T22:33:16.349Z,7.43
2017-07-18T22:35:43.895Z,6.77
2017-07-18T22:38:11.403Z,7.83
2017-07-18T22:40:38.902Z,6.83
2017-07-18T22:43:06.430Z,7.43
2017-07-18T22:45:33.945Z,7.50
2017-07-18T22:48:01.520Z,7.23
2017-07-18T22:50:29.030Z,7.27
2017-07-18T22:52:56.582Z,7.00
2017-07-18T22:55:24.122Z,8.20
2017-07-18T22:57:51.633Z,6.40
2017-07-18T23:00:19.142Z,5.97
2017-07-18T23:02:46.666Z,6.60
2017-07-18T23:05:14.194Z,7.63
2017-07-18T23:07:41.811Z,7.73
2017-07-18T23:10:09.313Z,6.37
2017-07-18T23:12:36.831Z,6.57
2017-07-18T23:15:04.639Z,6.77
2017-07-18T23:17:32.154Z,6.20
2017-07-18T23:19:59.650Z,6.53
2017-07-18T23:22:27.529Z,6.07
2017-07-18T23:24:55.103Z,5.77
2017-07-18T23:27:22.659Z,6.47
2017-07-18T23:29:50.216Z,6.40
2017-07-18T23:32:17.715Z,6.80
2017-07-18T23:34:45.234Z,6.10
2017-07-18T23:37:12.860Z,5.87
2017-07-18T23:39:40.361Z,6.03
2017-07-18T23:42:07.871Z,7.63
2017-07-18T23:44:35.435Z,6.00
2017-07-18T23:47:02.935Z,6.20
2017-07-18T23:49:30.451Z,6.07
2017-07-18T23:51:58.067Z,5.70
2017-07-18T23:54:25.570Z,6.00
2017-07-18T23:56:53.068Z,6.60
2017-07-18T23:59:20.919Z,5.93
